Forside
METAR-TAF:

METAR-TAF

Lufthavne :

New Century AirCenter

Olathe, Kansas, USA

Breddekreds: 38-49-28N, længdekreds: 094-53-13W, højde: 331 m

Aktuelle vejr

Denne rapport blev lavet for 53 minutter siden, kl. 23:53 UTC
Vind 5 kt fra sydøst
Temperatur 0°C
Fugtighed 51%
Tryk 1028 hPa
Sigt: 16.1 km
skyfri

METAR: KIXD 142353Z 14005KT 10SM CLR 00/M09 A3035 RMK AO2 SLP290 T00001089 10033 20000 56015

Tid: 18:46 (00:46 UTC)

Vejrudsigter

Denne rapport blev lavet for 1 time og 25 minutter siden, kl. 23:21 UTC
Foreløbig gælder fra 15 på 00 UTC til 15 på 24 UTC
Vind 3 kt fra varierende retninger
Sigt: 10 km
skyfri
Fra 15 på 1400 UTC
Vind 6 kt fra syd
Sigt: 10 km
skyfri

TAF: KIXD 142321Z 1500/1524 VRB03KT P6SM SKC FM151400 19006KT P6SM SKC

Vejrobservationer og prognoser fra mere end 4000 lufthavne (METAR og TAF).

De gule og røde prikker repræsenterer de meteorologiske stationer.

Flyt musen over at se navnet på stationen.

Så klik over at se vejr observationer og prognoser.

At skifte det kort: Klik på de grønne knapper med et sort kors for at zoome ind; på den grønne knap med en bindestreg for at zoome ud; eller på de grønne pile for tilstødende kort.


METAR-TAF: